Time;durP1;ratioP1;P1;durP2;ratioP2;P2;SDS_P1;SDS_P2;PMS_P1;PMS_P2;Temp;Humidity;BMP_temperature;BMP_pressure;BME280_temperature;BME280_humidity;BME280_pressure;Samples;Min_cycle;Max_cycle;Signal;HPM_P1;HPM_P2
2023/04/12 00:00:53;;;;;;;4.90;1.58;;;;;;;11.31;61.28;100250.13;5012974;28;20041;-67
2023/04/12 00:03:19;;;;;;;10.13;1.45;;;;;;;11.28;61.30;100250.16;5015363;28;20050;-67
2023/04/12 00:05:45;;;;;;;5.55;1.42;;;;;;;11.23;62.54;100267.53;5018837;28;20071;-68
2023/04/12 00:08:11;;;;;;;3.33;1.75;;;;;;;11.15;64.03;100274.59;5016299;28;20053;-68
2023/04/12 00:10:36;;;;;;;7.18;1.58;;;;;;;11.07;63.86;100277.28;5018628;28;20360;-68
2023/04/12 00:13:02;;;;;;;4.63;1.50;;;;;;;10.99;64.46;100276.59;5016332;28;20125;-68
2023/04/12 00:15:27;;;;;;;9.20;1.50;;;;;;;10.91;65.52;100300.88;5015700;28;20035;-68
2023/04/12 00:17:53;;;;;;;7.55;1.58;;;;;;;10.80;67.27;100301.91;5018586;28;20038;-68
2023/04/12 00:20:18;;;;;;;6.25;1.70;;;;;;;10.73;66.72;100289.13;5017906;28;20451;-69
2023/04/12 00:22:44;;;;;;;5.30;1.70;;;;;;;10.71;66.17;100277.97;5017445;28;20044;-68
2023/04/12 00:25:10;;;;;;;4.15;1.35;;;;;;;10.64;67.37;100284.09;5015560;28;20112;-67
2023/04/12 00:27:35;;;;;;;5.13;1.30;;;;;;;10.55;68.80;100304.91;5015060;28;20038;-68
2023/04/12 00:30:02;;;;;;;6.78;1.48;;;;;;;10.53;68.20;100292.03;5015581;28;20041;-67
2023/04/12 00:32:27;;;;;;;5.47;1.25;;;;;;;10.46;68.97;100293.00;5012899;28;20291;-68
2023/04/12 00:34:53;;;;;;;6.47;1.83;;;;;;;10.47;68.36;100280.94;5011670;28;20041;-67
2023/04/12 00:37:18;;;;;;;1.85;1.00;;;;;;;10.37;69.84;100295.72;5016897;28;20030;-68
2023/04/12 00:39:43;;;;;;;3.55;1.05;;;;;;;10.28;71.52;100284.66;5014826;28;20033;-67
2023/04/12 00:42:09;;;;;;;6.68;1.60;;;;;;;10.19;71.30;100268.44;5016284;28;20041;-68
2023/04/12 00:44:34;;;;;;;4.45;1.65;;;;;;;10.13;71.55;100265.09;5010203;28;20816;-68
2023/04/12 00:47:02;;;;;;;7.25;1.40;;;;;;;10.13;71.36;100244.44;5014562;28;20536;-68
2023/04/12 00:49:29;;;;;;;5.88;1.65;;;;;;;10.13;71.45;100219.47;5015276;28;20047;-68
2023/04/12 00:52:03;;;;;;;3.40;1.08;;;;;;;10.17;70.02;100200.47;5016745;28;20069;-68
2023/04/12 00:54:29;;;;;;;4.72;1.58;;;;;;;10.11;70.80;100207.44;5013287;28;20100;-68
2023/04/12 00:56:56;;;;;;;5.88;1.40;;;;;;;10.07;70.89;100203.19;5018286;28;20030;-68
2023/04/12 00:59:22;;;;;;;5.05;1.40;;;;;;;10.03;72.38;100206.72;5015596;28;20034;-68
2023/04/12 01:01:48;;;;;;;5.03;1.35;;;;;;;9.99;72.06;100207.63;5014423;28;20510;-69
2023/04/12 01:04:14;;;;;;;4.20;1.38;;;;;;;10.01;71.81;100196.41;5013290;28;20030;-67
2023/04/12 01:06:54;;;;;;;4.13;1.33;;;;;;;10.03;72.43;100199.81;5013536;28;20775;-69
2023/04/12 01:09:43;;;;;;;4.00;1.25;;;;;;;10.04;71.73;100173.13;5015273;28;20049;-68
2023/04/12 01:12:30;;;;;;;7.60;2.92;;;;;;;10.03;71.39;100155.91;5013900;28;20043;-68
2023/04/12 01:15:02;;;;;;;4.32;1.08;;;;;;;10.02;72.57;100174.03;5011552;28;20066;-68
2023/04/12 01:17:36;;;;;;;3.50;1.00;;;;;;;10.02;71.40;100155.94;5012130;28;20041;-68
2023/04/12 01:20:12;;;;;;;4.50;1.40;;;;;;;9.97;72.85;100170.66;5019084;28;20540;-68
2023/04/12 01:22:56;;;;;;;3.85;1.60;;;;;;;9.96;72.10;100151.75;5014924;28;20095;-67
2023/04/12 01:25:33;;;;;;;4.75;1.40;;;;;;;9.95;73.00;100146.59;5013588;28;20032;-69
2023/04/12 01:28:03;;;;;;;5.55;1.10;;;;;;;9.93;72.47;100143.19;5013162;28;20379;-68
2023/04/12 01:30:29;;;;;;;3.80;1.20;;;;;;;9.95;73.29;100160.34;5015237;28;20030;-68
2023/04/12 01:32:58;;;;;;;4.15;1.13;;;;;;;9.91;73.62;100155.28;5013432;28;20445;-68
2023/04/12 01:35:28;;;;;;;5.75;1.27;;;;;;;9.80;75.78;100157.13;5017141;28;20144;-68
2023/04/12 01:37:53;;;;;;;3.13;1.25;;;;;;;9.70;75.90;100146.13;5018590;28;20515;-68
2023/04/12 01:40:19;;;;;;;3.40;1.50;;;;;;;9.60;76.50;100126.47;5017025;28;20025;-68
2023/04/12 01:42:45;;;;;;;4.35;1.42;;;;;;;9.53;77.04;100117.94;5010210;28;20178;-68
2023/04/12 01:45:11;;;;;;;3.17;1.20;;;;;;;9.48;78.67;100121.47;5011746;28;20060;-68
2023/04/12 01:47:37;;;;;;;3.70;1.20;;;;;;;9.48;78.66;100108.56;5013465;28;20947;-68
2023/04/12 01:50:14;;;;;;;4.35;1.30;;;;;;;9.41;79.67;100109.50;5011134;28;21638;-68
2023/04/12 01:52:57;;;;;;;2.70;1.80;;;;;;;9.35;80.49;100104.44;5011590;28;20061;-68
2023/04/12 01:55:26;;;;;;;4.70;1.55;;;;;;;9.29;80.75;100092.50;5014123;28;20430;-67
2023/04/12 01:57:52;;;;;;;5.22;1.00;;;;;;;9.28;80.96;100071.91;5014320;28;20037;-67
2023/04/12 02:00:19;;;;;;;8.43;1.40;;;;;;;9.21;81.49;100073.69;5012958;28;20040;-68
2023/04/12 02:02:44;;;;;;;5.35;1.40;;;;;;;9.21;81.97;100065.09;5025008;28;20156;-67
2023/04/12 02:05:10;;;;;;;3.50;1.83;;;;;;;9.12;83.21;100063.50;5014252;28;20041;-67
2023/04/12 02:07:36;;;;;;;3.47;1.27;;;;;;;9.09;83.61;100054.09;5016766;28;20041;-67
2023/04/12 02:10:02;;;;;;;4.97;1.30;;;;;;;9.05;83.36;100052.44;5018287;28;20037;-67
2023/04/12 02:12:27;;;;;;;2.45;1.33;;;;;;;9.04;85.66;100050.75;5017517;28;20033;-67
2023/04/12 02:14:53;;;;;;;4.15;1.40;;;;;;;8.97;85.27;100043.94;5016603;28;21749;-67
2023/04/12 02:17:18;;;;;;;5.68;1.83;;;;;;;8.97;87.21;100035.38;5018597;28;20091;-67
2023/04/12 02:19:44;;;;;;;6.40;1.58;;;;;;;8.91;87.61;100038.03;5020051;28;20021;-67
2023/04/12 02:22:10;;;;;;;4.93;1.42;;;;;;;8.90;88.45;100034.59;5020674;28;20057;-67
2023/04/12 02:24:36;;;;;;;10.65;2.40;;;;;;;8.89;87.63;100027.75;5020969;28;20126;-66
2023/04/12 02:27:01;;;;;;;6.05;1.55;;;;;;;8.87;88.63;100024.31;5017545;28;20133;-67
2023/04/12 02:29:26;;;;;;;3.80;1.42;;;;;;;8.82;88.58;100013.22;5021981;28;20668;-67
2023/04/12 02:31:52;;;;;;;4.45;1.65;;;;;;;8.82;88.56;100010.66;5016881;28;20486;-67
2023/04/12 02:34:18;;;;;;;6.20;1.63;;;;;;;8.78;89.82;100006.44;5028773;28;20045;-68
2023/04/12 02:36:47;;;;;;;7.00;1.95;;;;;;;8.74;90.50;100009.06;5023593;28;20665;-66
2023/04/12 02:39:12;;;;;;;5.35;1.35;;;;;;;8.73;89.80;100005.63;5018269;28;20041;-65
2023/04/12 02:41:38;;;;;;;7.35;1.88;;;;;;;8.70;90.02;99994.50;5017123;28;20045;-65
2023/04/12 02:44:03;;;;;;;4.72;1.25;;;;;;;8.68;91.49;99993.66;5018361;28;20050;-66
2023/04/12 02:46:29;;;;;;;6.38;1.50;;;;;;;8.63;92.00;99980.00;5016898;28;20049;-65
2023/04/12 02:48:54;;;;;;;7.90;1.60;;;;;;;8.61;93.52;99972.28;5019932;28;20095;-65
2023/04/12 02:51:19;;;;;;;11.25;1.73;;;;;;;8.58;93.54;99964.59;5018231;28;20415;-67
2023/04/12 02:53:45;;;;;;;6.93;2.00;;;;;;;8.54;94.28;99948.31;5016436;28;20042;-65
2023/04/12 02:56:11;;;;;;;7.50;2.00;;;;;;;8.53;94.96;99936.34;5020512;28;20045;-65
2023/04/12 02:58:38;;;;;;;7.47;1.98;;;;;;;8.50;95.06;99927.78;5015420;28;20036;-66
2023/04/12 03:01:06;;;;;;;7.90;1.63;;;;;;;8.48;95.65;99922.69;5017494;28;20055;-66
2023/04/12 03:03:32;;;;;;;7.57;2.03;;;;;;;8.48;96.20;99924.41;5018065;28;20064;-66
2023/04/12 03:05:58;;;;;;;7.32;2.08;;;;;;;8.46;95.87;99921.84;5017030;28;20033;-67
2023/04/12 03:08:23;;;;;;;7.15;2.05;;;;;;;8.47;96.38;99912.38;5015031;28;20461;-66
2023/04/12 03:10:49;;;;;;;11.80;2.30;;;;;;;8.44;96.13;99902.13;5018122;28;20053;-66
2023/04/12 03:13:14;;;;;;;6.35;1.90;;;;;;;8.43;96.35;99901.28;5019123;28;20722;-67
2023/04/12 03:15:40;;;;;;;7.00;2.10;;;;;;;8.43;96.82;99898.69;5017210;28;20049;-67
2023/04/12 03:18:05;;;;;;;5.68;2.13;;;;;;;8.43;96.44;99885.81;5019424;28;20041;-67
2023/04/12 03:20:32;;;;;;;10.30;2.25;;;;;;;8.43;96.85;99884.97;5017164;28;20045;-67
2023/04/12 03:22:57;;;;;;;10.68;2.20;;;;;;;8.42;96.55;99870.41;5012205;28;20128;-67
2023/04/12 03:25:23;;;;;;;6.00;2.13;;;;;;;8.41;96.15;99856.66;5017187;28;20502;-67
2023/04/12 03:27:48;;;;;;;10.85;2.35;;;;;;;8.42;96.58;99852.38;5014951;28;20036;-67
2023/04/12 03:30:14;;;;;;;8.88;2.22;;;;;;;8.40;95.86;99851.53;5016571;28;20045;-67
2023/04/12 03:32:40;;;;;;;8.32;2.20;;;;;;;8.42;96.12;99842.94;5016787;28;20489;-67
2023/04/12 03:35:07;;;;;;;8.43;2.75;;;;;;;8.40;97.17;99839.50;5012486;28;20041;-68
2023/04/12 03:37:33;;;;;;;5.28;2.10;;;;;;;8.37;96.48;99834.41;5017929;28;20128;-67
2023/04/12 03:39:58;;;;;;;9.05;2.35;;;;;;;8.38;96.84;99825.81;5014920;28;20030;-67
2023/04/12 03:42:25;;;;;;;10.18;2.40;;;;;;;8.35;96.63;99818.13;5017172;28;20045;-67
2023/04/12 03:44:51;;;;;;;9.27;2.50;;;;;;;8.37;96.20;99812.94;5013209;28;20090;-67
2023/04/12 03:47:17;;;;;;;7.32;2.55;;;;;;;8.34;96.46;99803.56;5016794;28;20099;-67
2023/04/12 03:49:42;;;;;;;9.90;2.83;;;;;;;8.37;96.60;99798.34;5020515;28;20037;-67
2023/04/12 03:52:08;;;;;;;5.82;2.30;;;;;;;8.36;97.02;99790.66;5014130;28;20044;-68
2023/04/12 03:54:33;;;;;;;8.23;2.90;;;;;;;8.36;96.44;99790.66;5016042;28;20719;-66
2023/04/12 03:56:59;;;;;;;8.80;2.58;;;;;;;8.36;95.77;99786.38;5016814;28;20033;-67
2023/04/12 03:59:24;;;;;;;7.57;2.67;;;;;;;8.37;95.82;99787.19;5010848;28;20034;-67
2023/04/12 04:01:50;;;;;;;10.80;3.05;;;;;;;8.35;96.42;99771.78;5011245;28;20042;-67
2023/04/12 04:04:15;;;;;;;9.68;3.08;;;;;;;8.34;95.93;99759.78;5018211;28;20040;-67
2023/04/12 04:06:41;;;;;;;7.78;2.60;;;;;;;8.35;95.95;99756.34;5016992;28;20045;-67
2023/04/12 04:09:06;;;;;;;8.95;2.75;;;;;;;8.34;96.63;99749.47;5010417;28;20114;-66
2023/04/12 04:11:31;;;;;;;10.10;2.67;;;;;;;8.37;95.57;99735.72;5012961;28;20944;-67
2023/04/12 04:13:57;;;;;;;7.95;3.08;;;;;;;8.36;96.00;99737.47;5010141;28;20046;-67
2023/04/12 04:16:22;;;;;;;7.05;2.47;;;;;;;8.35;95.15;99728.03;5015497;28;20176;-67
2023/04/12 04:18:47;;;;;;;8.23;2.60;;;;;;;8.38;95.96;99722.81;5011315;28;20037;-67
2023/04/12 04:21:13;;;;;;;6.05;3.35;;;;;;;8.38;95.67;99724.53;4999110;28;20686;-67
2023/04/12 04:23:39;;;;;;;5.72;2.70;;;;;;;8.39;95.55;99715.97;4997260;28;20034;-67
2023/04/12 04:26:08;;;;;;;8.27;2.75;;;;;;;8.36;95.88;99706.56;5001414;28;20033;-67
2023/04/12 04:28:36;;;;;;;5.82;2.67;;;;;;;8.36;96.10;99698.84;4995657;28;20133;-66
2023/04/12 04:31:05;;;;;;;6.35;2.40;;;;;;;8.40;96.35;99697.88;5016849;28;20061;-67
2023/04/12 04:33:33;;;;;;;5.72;2.35;;;;;;;8.44;95.23;99690.97;5016646;28;20042;-66
2023/04/12 04:35:58;;;;;;;5.53;2.50;;;;;;;8.44;95.45;99690.97;5014346;28;20045;-67
2023/04/12 04:38:25;;;;;;;4.78;2.63;;;;;;;8.45;95.33;99688.38;5009623;28;20046;-67
2023/04/12 04:40:54;;;;;;;5.15;2.30;;;;;;;8.46;95.77;99686.63;5009544;28;20025;-67
2023/04/12 04:43:20;;;;;;;4.20;2.40;;;;;;;8.44;95.71;99675.53;5012062;28;20021;-67
2023/04/12 04:45:53;;;;;;;5.95;2.60;;;;;;;8.45;95.90;99679.81;5016218;28;20882;-65
2023/04/12 04:48:19;;;;;;;7.63;2.05;;;;;;;8.44;95.72;99683.25;5015351;28;20044;-66
2023/04/12 04:50:45;;;;;;;4.88;2.00;;;;;;;8.44;95.87;99671.22;5023669;28;20584;-66
2023/04/12 04:53:11;;;;;;;3.95;2.35;;;;;;;8.43;96.07;99677.25;5013139;28;20041;-66
2023/04/12 04:55:36;;;;;;;4.93;2.35;;;;;;;8.46;95.67;99678.91;5020704;28;20600;-66
2023/04/12 04:58:01;;;;;;;5.50;3.00;;;;;;;8.44;96.79;99678.09;5018385;28;20033;-66
2023/04/12 05:00:27;;;;;;;5.88;2.60;;;;;;;8.42;96.91;99669.56;5013329;28;20042;-66
2023/04/12 05:02:53;;;;;;;4.97;2.88;;;;;;;8.42;97.25;99667.84;5015401;28;20120;-66
2023/04/12 05:05:21;;;;;;;4.65;2.25;;;;;;;8.44;96.35;99663.50;5016413;28;20096;-65
2023/04/12 05:07:47;;;;;;;5.78;2.20;;;;;;;8.42;96.65;99662.69;5015558;28;20086;-66
2023/04/12 05:10:15;;;;;;;5.03;2.60;;;;;;;8.44;97.11;99653.19;5018517;28;20437;-66
2023/04/12 05:12:41;;;;;;;4.43;2.17;;;;;;;8.43;97.05;99658.34;5020068;28;20060;-66
2023/04/12 05:15:06;;;;;;;3.85;2.25;;;;;;;8.44;97.53;99660.94;5013430;28;20501;-66
2023/04/12 05:17:33;;;;;;;6.00;2.22;;;;;;;8.43;97.46;99656.63;5017515;28;20087;-65
2023/04/12 05:19:59;;;;;;;4.82;2.63;;;;;;;8.42;97.53;99649.81;5013148;28;20087;-66
2023/04/12 05:22:25;;;;;;;4.93;2.30;;;;;;;8.43;98.04;99645.47;5009690;28;20040;-66
2023/04/12 05:24:51;;;;;;;5.43;2.13;;;;;;;8.42;98.53;99641.22;5012789;28;20044;-65
2023/04/12 05:27:16;;;;;;;7.70;2.63;;;;;;;8.42;98.40;99642.09;5006503;28;20046;-66
2023/04/12 05:29:42;;;;;;;5.95;2.45;;;;;;;8.42;98.74;99628.34;5011335;28;20171;-67
2023/04/12 05:32:07;;;;;;;7.05;2.40;;;;;;;8.40;99.52;99625.78;5012914;28;20076;-66
2023/04/12 05:34:33;;;;;;;5.22;2.15;;;;;;;8.37;99.19;99618.13;5018519;28;20033;-66
2023/04/12 05:36:58;;;;;;;7.10;2.83;;;;;;;8.39;99.94;99613.81;5018167;28;20056;-66
2023/04/12 05:39:25;;;;;;;9.95;2.50;;;;;;;8.39;100.00;99610.38;5019358;28;20045;-66
2023/04/12 05:41:50;;;;;;;3.75;2.28;;;;;;;8.40;99.75;99606.91;5012065;28;20037;-67
2023/04/12 05:44:17;;;;;;;6.03;2.83;;;;;;;8.39;100.00;99600.09;5009983;28;20099;-68
2023/04/12 05:46:42;;;;;;;7.75;2.78;;;;;;;8.40;100.00;99604.34;5007024;28;20041;-66
2023/04/12 05:49:07;;;;;;;5.07;2.22;;;;;;;8.41;100.00;99600.91;5015280;28;20033;-66
2023/04/12 05:51:33;;;;;;;8.35;3.17;;;;;;;8.42;100.00;99589.72;5011372;28;20628;-67
2023/04/12 05:53:58;;;;;;;7.75;2.55;;;;;;;8.43;100.00;99594.84;5007971;28;20065;-67
2023/04/12 05:56:23;;;;;;;4.10;2.70;;;;;;;8.41;100.00;99596.59;5009277;28;20038;-67
2023/04/12 05:58:50;;;;;;;4.45;2.47;;;;;;;8.42;100.00;99589.72;5012490;28;20140;-66
2023/04/12 06:01:15;;;;;;;5.80;2.20;;;;;;;8.43;100.00;99583.69;5012325;28;20021;-66
2023/04/12 06:03:41;;;;;;;7.22;2.30;;;;;;;8.44;100.00;99588.81;5021124;28;20044;-67
2023/04/12 06:06:07;;;;;;;5.13;2.40;;;;;;;8.47;99.84;99573.31;5012012;28;20033;-67
2023/04/12 06:08:33;;;;;;;6.47;2.28;;;;;;;8.46;99.88;99584.47;5016129;28;20084;-67
2023/04/12 06:10:58;;;;;;;4.75;2.42;;;;;;;8.49;100.00;99575.84;5020166;28;20037;-67
2023/04/12 06:13:23;;;;;;;6.38;2.70;;;;;;;8.51;100.00;99574.13;5027082;28;20057;-67
2023/04/12 06:15:49;;;;;;;3.75;1.90;;;;;;;8.50;99.77;99568.09;5019356;28;20045;-67
2023/04/12 06:18:14;;;;;;;3.85;2.08;;;;;;;8.51;100.00;99563.81;5016490;28;20852;-66
2023/04/12 06:20:40;;;;;;;5.10;2.35;;;;;;;8.53;100.00;99562.03;5032794;28;20493;-67
2023/04/12 06:23:05;;;;;;;4.85;2.30;;;;;;;8.56;100.00;99557.69;5022489;28;20770;-67
2023/04/12 06:25:32;;;;;;;6.00;2.08;;;;;;;8.57;100.00;99566.28;5021915;28;20045;-67
2023/04/12 06:27:57;;;;;;;4.95;2.00;;;;;;;8.58;100.00;99553.34;5019292;28;20041;-67
2023/04/12 06:30:22;;;;;;;7.38;2.45;;;;;;;8.60;100.00;99557.63;5023523;28;20040;-67
2023/04/12 06:32:48;;;;;;;5.05;1.92;;;;;;;8.61;100.00;99544.72;5027426;28;20040;-70
2023/04/12 06:35:13;;;;;;;4.10;2.20;;;;;;;8.61;100.00;99549.84;5026531;28;20038;-67
2023/04/12 06:37:39;;;;;;;5.53;2.40;;;;;;;8.64;100.00;99536.91;5021419;28;20041;-67
2023/04/12 06:40:05;;;;;;;4.53;1.90;;;;;;;8.66;100.00;99542.91;5022540;28;20025;-67
2023/04/12 06:42:30;;;;;;;3.45;2.08;;;;;;;8.70;100.00;99536.78;5021585;28;20034;-68
2023/04/12 06:44:55;;;;;;;4.13;2.17;;;;;;;8.72;100.00;99526.47;5018141;28;20838;-68
2023/04/12 06:47:21;;;;;;;6.30;2.30;;;;;;;8.74;100.00;99525.56;5013277;28;20034;-67
2023/04/12 06:49:47;;;;;;;3.70;2.10;;;;;;;8.77;100.00;99528.06;5016654;28;20112;-66
2023/04/12 06:52:12;;;;;;;5.18;2.30;;;;;;;8.78;100.00;99516.91;5022083;28;20383;-67
2023/04/12 06:54:38;;;;;;;3.72;2.67;;;;;;;8.85;100.00;99507.28;5017537;28;20410;-66
2023/04/12 06:57:08;;;;;;;3.42;1.75;;;;;;;8.90;100.00;99502.91;5023587;28;20037;-67
2023/04/12 06:59:34;;;;;;;7.53;2.28;;;;;;;8.96;100.00;99497.63;5015741;28;20042;-67
2023/04/12 07:01:59;;;;;;;9.48;2.45;;;;;;;8.94;100.00;99489.03;5012738;28;20045;-67
2023/04/12 07:04:25;;;;;;;2.88;1.88;;;;;;;8.92;100.00;99488.25;5019517;28;20637;-66
2023/04/12 07:06:50;;;;;;;4.93;2.25;;;;;;;8.92;100.00;99483.09;5019187;28;20128;-66
2023/04/12 07:09:15;;;;;;;6.63;2.15;;;;;;;8.96;100.00;99482.97;5020242;28;20040;-66
2023/04/12 07:11:42;;;;;;;3.30;1.90;;;;;;;8.99;100.00;99479.50;5017565;28;20106;-65
2023/04/12 07:14:07;;;;;;;5.63;2.08;;;;;;;9.04;100.00;99475.09;5018674;28;20825;-65
2023/04/12 07:16:33;;;;;;;5.13;1.90;;;;;;;9.09;100.00;99474.09;5019532;28;20033;-66
2023/04/12 07:18:59;;;;;;;3.40;1.83;;;;;;;9.21;100.00;99469.53;5025094;28;20041;-66
2023/04/12 07:21:26;;;;;;;4.25;1.83;;;;;;;9.26;99.64;99467.72;5022230;28;20449;-66
2023/04/12 07:23:51;;;;;;;2.40;1.80;;;;;;;9.29;99.13;99465.06;5022214;28;20079;-66
2023/04/12 07:26:18;;;;;;;6.20;2.13;;;;;;;9.31;100.00;99458.13;5015895;28;20129;-65
2023/04/12 07:28:43;;;;;;;5.68;1.92;;;;;;;9.29;99.94;99453.00;5011731;28;20429;-66
2023/04/12 07:31:08;;;;;;;3.72;1.67;;;;;;;9.30;99.78;99444.38;5034028;28;20369;-66
2023/04/12 07:33:36;;;;;;;3.42;1.63;;;;;;;9.35;99.38;99441.69;5024921;28;20073;-66
2023/04/12 07:36:01;;;;;;;3.80;2.50;;;;;;;9.40;99.91;99432.13;5026995;28;20129;-65
2023/04/12 07:38:27;;;;;;;2.30;1.60;;;;;;;9.41;99.50;99424.31;5019362;28;20045;-66
2023/04/12 07:40:54;;;;;;;3.78;1.65;;;;;;;9.47;98.78;99426.75;5015782;28;20030;-66
2023/04/12 07:43:20;;;;;;;5.78;1.75;;;;;;;9.57;99.40;99423.09;5022313;28;20116;-66
2023/04/12 07:45:45;;;;;;;3.70;1.40;;;;;;;9.60;99.21;99417.00;5016296;28;20829;-66
2023/04/12 07:48:11;;;;;;;4.97;1.88;;;;;;;9.64;99.04;99400.56;5019111;28;20491;-66
2023/04/12 07:50:37;;;;;;;4.32;1.80;;;;;;;9.70;97.70;99405.56;5024268;28;20520;-67
2023/04/12 07:53:22;;;;;;;2.75;1.52;;;;;;;9.76;98.47;99407.13;5023662;28;20033;-66
2023/04/12 07:55:48;;;;;;;6.50;1.75;;;;;;;9.77;97.46;99396.75;5027846;28;20089;-66
2023/04/12 07:58:17;;;;;;;2.03;1.33;;;;;;;9.79;97.70;99396.75;5016017;28;20486;-66
2023/04/12 08:00:44;;;;;;;4.28;1.65;;;;;;;9.75;97.79;99400.28;5018686;28;20196;-67
2023/04/12 08:03:17;;;;;;;2.08;1.42;;;;;;;9.65;97.91;99394.50;5024239;28;20033;-66
2023/04/12 08:05:43;;;;;;;2.53;1.20;;;;;;;9.59;97.76;99398.09;5019071;28;20072;-66
2023/04/12 08:08:09;;;;;;;3.38;1.67;;;;;;;9.68;99.08;99397.88;5020529;28;20127;-65
2023/04/12 08:10:35;;;;;;;2.90;1.50;;;;;;;9.74;98.70;99393.41;5024081;28;20807;-66
2023/04/12 08:13:02;;;;;;;4.78;1.55;;;;;;;9.78;98.72;99397.63;5015417;28;20041;-66
2023/04/12 08:15:27;;;;;;;2.50;1.42;;;;;;;9.77;98.22;99394.19;5022712;28;20059;-66
2023/04/12 08:17:53;;;;;;;3.67;1.70;;;;;;;9.84;98.46;99384.56;5020912;28;20029;-66
2023/04/12 08:20:18;;;;;;;3.90;1.40;;;;;;;9.88;98.40;99393.91;5025385;28;20033;-67
2023/04/12 08:22:45;;;;;;;2.55;1.38;;;;;;;9.92;98.27;99393.78;5018515;28;20059;-66
2023/04/12 08:25:10;;;;;;;2.88;1.60;;;;;;;9.97;97.52;99388.50;5024884;28;20040;-66
2023/04/12 08:27:35;;;;;;;4.80;1.52;;;;;;;10.05;98.14;99396.88;5032831;28;20041;-65
2023/04/12 08:30:02;;;;;;;2.25;1.42;;;;;;;10.13;99.12;99390.59;5018128;28;20045;-65
2023/04/12 08:32:28;;;;;;;3.72;1.60;;;;;;;10.23;98.14;99373.09;5017613;28;20060;-66
2023/04/12 08:34:54;;;;;;;1.63;1.23;;;;;;;10.39;97.67;99366.59;5017067;28;20104;-65
2023/04/12 08:37:19;;;;;;;4.97;1.45;;;;;;;10.57;97.05;99368.59;5028398;28;20540;-65
2023/04/12 08:39:45;;;;;;;3.78;1.60;;;;;;;10.71;96.03;99361.28;5018618;28;20045;-66
2023/04/12 08:42:12;;;;;;;4.93;1.63;;;;;;;10.81;96.31;99364.41;5007621;28;20152;-66
2023/04/12 08:44:38;;;;;;;4.10;1.23;;;;;;;10.77;95.73;99370.59;5018921;28;20030;-65
2023/04/12 08:47:06;;;;;;;4.18;1.20;;;;;;;10.62;94.71;99374.47;5012981;28;20037;-65
2023/04/12 08:49:33;;;;;;;1.30;1.00;;;;;;;10.57;96.47;99368.59;5027116;28;20075;-66
2023/04/12 08:52:04;;;;;;;2.63;1.42;;;;;;;10.54;95.86;99368.69;5018571;28;20045;-66
2023/04/12 08:54:31;;;;;;;2.45;1.38;;;;;;;10.59;96.65;99366.00;5018195;28;20506;-66
2023/04/12 08:57:00;;;;;;;5.40;1.77;;;;;;;10.65;97.16;99376.97;5022164;28;20041;-67
2023/04/12 08:59:27;;;;;;;1.55;1.30;;;;;;;10.74;97.06;99370.69;5009884;28;20029;-66
2023/04/12 09:01:53;;;;;;;2.97;1.25;;;;;;;10.89;95.88;99359.03;5019372;28;20025;-68
2023/04/12 09:04:19;;;;;;;2.00;1.15;;;;;;;11.09;95.27;99359.22;5026075;28;20402;-66
2023/04/12 09:06:44;;;;;;;4.22;1.70;;;;;;;11.30;95.20;99346.44;5016786;28;20175;-67
2023/04/12 09:09:10;;;;;;;6.15;1.55;;;;;;;11.43;94.02;99343.38;5010807;28;20574;-68
2023/04/12 09:11:35;;;;;;;3.25;1.40;;;;;;;11.48;92.92;99341.53;5019737;28;20053;-67
2023/04/12 09:14:01;;;;;;;3.15;1.30;;;;;;;11.56;92.75;99335.19;5016459;28;20231;-67
2023/04/12 09:16:42;;;;;;;4.65;1.30;;;;;;;11.63;91.49;99341.00;5018779;28;20688;-66
2023/04/12 09:19:08;;;;;;;3.20;1.85;;;;;;;11.83;91.55;99341.13;5020052;28;20033;-67
2023/04/12 09:21:34;;;;;;;5.05;1.83;;;;;;;11.96;90.78;99329.41;5016248;28;20033;-67
2023/04/12 09:24:12;;;;;;;1.67;1.10;;;;;;;12.04;89.33;99319.63;5009754;28;20036;-67
2023/04/12 09:26:38;;;;;;;7.13;1.20;;;;;;;12.18;89.21;99321.69;5015369;28;20149;-67
2023/04/12 09:29:04;;;;;;;1.33;0.90;;;;;;;12.29;89.48;99317.78;5013580;28;20037;-68
2023/04/12 09:31:30;;;;;;;1.45;1.10;;;;;;;12.43;87.37;99310.31;5016554;28;20043;-67
2023/04/12 09:34:07;;;;;;;2.13;0.90;;;;;;;12.32;88.10;99315.09;5015746;28;20037;-67
2023/04/12 09:36:40;;;;;;;1.73;1.00;;;;;;;12.19;88.55;99329.44;5009118;28;20049;-68
2023/04/12 09:39:06;;;;;;;1.80;1.30;;;;;;;12.05;89.55;99323.09;5012643;28;20037;-66
2023/04/12 09:41:32;;;;;;;2.00;1.40;;;;;;;11.86;90.02;99322.91;5017117;28;20033;-67
2023/04/12 09:44:00;;;;;;;3.25;1.13;;;;;;;11.82;90.09;99319.56;5009023;28;20125;-68
2023/04/12 09:46:26;;;;;;;2.85;1.15;;;;;;;11.79;91.44;99327.44;5019097;28;20036;-67
2023/04/12 09:48:54;;;;;;;1.95;1.20;;;;;;;11.70;91.97;99332.09;5015656;28;20837;-67
2023/04/12 09:51:30;;;;;;;2.45;1.20;;;;;;;11.66;91.88;99326.19;5014467;28;20036;-66
2023/04/12 09:54:00;;;;;;;2.22;1.42;;;;;;;11.61;91.78;99324.66;5014012;28;20037;-66
2023/04/12 09:56:28;;;;;;;3.05;1.63;;;;;;;11.58;92.54;99323.03;5017611;28;20675;-66
2023/04/12 09:58:59;;;;;;;5.95;1.48;;;;;;;11.60;93.43;99317.81;5014108;28;20041;-66
2023/04/12 10:01:24;;;;;;;4.22;1.50;;;;;;;11.68;94.17;99314.06;5015949;28;20021;-66
2023/04/12 10:03:50;;;;;;;5.85;4.03;;;;;;;11.70;93.28;99320.03;5017258;28;20728;-66
2023/04/12 10:06:17;;;;;;;5.45;2.40;;;;;;;11.80;93.23;99308.44;5011498;28;20048;-66
2023/04/12 10:08:43;;;;;;;2.45;1.75;;;;;;;11.94;94.70;99300.16;5024616;28;20042;-65
2023/04/12 10:11:08;;;;;;;4.38;2.97;;;;;;;12.11;94.52;99299.53;5024969;28;20041;-66
2023/04/12 10:13:36;;;;;;;3.33;2.47;;;;;;;12.35;94.20;99304.59;5015387;28;20536;-66
2023/04/12 10:16:04;;;;;;;4.13;1.75;;;;;;;12.58;93.23;99295.94;5013430;28;20103;-66
2023/04/12 10:18:33;;;;;;;2.28;1.40;;;;;;;12.84;92.47;99292.28;5014124;28;20601;-66
2023/04/12 10:20:59;;;;;;;2.38;1.52;;;;;;;12.92;91.55;99290.22;5016437;28;20021;-66
2023/04/12 10:23:25;;;;;;;1.98;1.60;;;;;;;12.92;91.39;99287.63;5018730;28;20036;-66
2023/04/12 10:25:52;;;;;;;2.60;1.25;;;;;;;12.82;91.55;99281.97;5026924;28;20555;-67
2023/04/12 10:28:22;;;;;;;3.38;1.50;;;;;;;12.77;92.41;99281.31;5014259;28;20040;-67
2023/04/12 10:30:50;;;;;;;6.80;2.10;;;;;;;13.05;94.40;99275.88;5013700;28;20041;-67
2023/04/12 10:33:18;;;;;;;4.03;2.08;;;;;;;13.09;94.00;99261.84;5017118;28;20040;-67
2023/04/12 10:35:53;;;;;;;6.60;2.00;;;;;;;13.24;94.05;99262.94;5013799;28;20457;-68
2023/04/12 10:38:18;;;;;;;2.50;1.92;;;;;;;13.37;93.45;99264.97;5020236;28;20049;-67
2023/04/12 10:41:05;;;;;;;2.60;1.40;;;;;;;13.52;92.99;99264.31;5012718;28;20025;-67
2023/04/12 10:43:31;;;;;;;4.30;1.80;;;;;;;13.93;93.27;99259.84;5011497;28;20144;-68
2023/04/12 10:45:57;;;;;;;2.42;1.63;;;;;;;14.31;90.70;99262.38;5013255;28;20439;-67
2023/04/12 10:48:32;;;;;;;6.28;1.75;;;;;;;14.58;89.93;99259.34;5009203;28;20029;-68
2023/04/12 10:51:26;;;;;;;3.72;1.60;;;;;;;14.89;88.08;99256.09;5021345;28;20105;-68
2023/04/12 10:53:52;;;;;;;5.85;1.73;;;;;;;14.60;86.50;99254.91;5018989;28;20041;-69
2023/04/12 10:56:30;;;;;;;1.73;1.23;;;;;;;14.11;86.62;99245.16;5022334;28;20061;-68
2023/04/12 10:58:57;;;;;;;1.25;0.93;;;;;;;13.45;85.07;99294.03;5016704;28;20065;-68
2023/04/12 11:01:22;;;;;;;1.80;0.50;;;;;;;12.40;82.92;99300.13;5016125;28;20022;-68
2023/04/12 11:04:11;;;;;;;0.40;0.40;;;;;;;11.96;87.14;99302.69;5016843;28;20596;-67
2023/04/12 11:06:52;;;;;;;2.50;0.50;;;;;;;11.80;88.12;99315.34;5020894;28;20259;-66
2023/04/12 11:09:39;;;;;;;1.75;1.40;;;;;;;11.79;89.63;99318.84;5017322;28;20038;-67
2023/04/12 11:12:05;;;;;;;1.98;0.82;;;;;;;11.74;nan;99329.38;5015747;28;20414;-68
2023/04/12 11:14:34;;;;;;;1.63;0.95;;;;;;;11.59;89.35;99324.75;5011814;28;20037;-67
2023/04/12 11:17:05;;;;;;;0.80;0.80;;;;;;;11.42;89.97;99339.97;5016045;28;20049;-66
2023/04/12 11:19:54;;;;;;;2.40;0.90;;;;;;;11.26;91.48;99341.38;5019435;28;20112;-66
2023/04/12 11:22:22;;;;;;;3.78;1.10;;;;;;;11.12;92.74;99347.03;5009829;28;20580;-66
2023/04/12 11:24:49;;;;;;;1.02;0.90;;;;;;;10.94;91.71;99333.84;5014366;28;20033;-67
2023/04/12 11:27:15;;;;;;;3.70;1.15;;;;;;;11.26;91.39;99331.03;5012159;28;20060;-66
2023/04/12 11:29:42;;;;;;;2.55;1.02;;;;;;;11.72;88.71;99319.97;5012959;28;20569;-66
2023/04/12 11:32:13;;;;;;;2.72;1.02;;;;;;;12.20;86.42;99310.38;5013400;28;20041;-67
2023/04/12 11:34:40;;;;;;;3.47;1.20;;;;;;;12.55;84.83;99324.59;5018217;28;20700;-66